• Join FlightAware (Why Join?)
  • Login
  • US Flag 
06:40AM EDT


 

Airport Tracker/Info


-or-


 

Live Flight TrackerFlight Track Log ✈ UAL975 ✈ 30-Apr-2012 ✈ KIAD - KSFO

Flight Track Log - Related Links

Times and Time Zones

All times are in EDT time to prevent confusion due to time zone crossing. See the UAL975 flight status page for this flight to view local times or setup timezone preferences in your user account.

Time Position Orientation Groundspeed Altitude Reporting Facility
EDT Latitude Longitude Course Direction KTS MPH feet Rate Location/Type
05:47PM 38.9755 -77.4667 237° Southwest  Level FlightAware Approximate
05:48PM 39.0855 -77.4855 190° South  Level FlightAware Approximate
05:48PM 38.9500 -77.5167 334° Northwest 190 219 1,500  Level Potomac TRACON
05:50PM 39.0833 -77.6000 360° North 288 331 6,300 2,400 Climbing Potomac TRACON
05:51PM 39.1500 -77.6000 352° North 286 329 8,900 1,980 Climbing Potomac TRACON
05:53PM 39.2839 -77.6242 329° Northwest 314 361 11,300 1,920 Climbing Washington Center
05:54PM 39.3581 -77.6825 322° Northwest 346 398 13,900 2,280 Climbing Washington Center
05:55PM 39.4336 -77.7600 298° West 341 392 15,900 300 Climbing Washington Center
06:02PM 39.7725 -78.6991 298° West  Level FlightAware Approximate
06:03PM 39.8234 -78.8335 298° West  Level FlightAware Approximate
06:04PM 39.8611 -78.9758 298° West  Level FlightAware Approximate
06:05PM 39.9015 -79.1177 298° West  Level FlightAware Approximate
06:06PM 39.9662 -79.2436 298° West  Level FlightAware Approximate
06:07PM 39.9852 -79.3777 298° West  Level FlightAware Approximate
06:08PM 40.0444 -79.5048 298° West  Level FlightAware Approximate
06:09PM 40.1111 -79.6292 298° West  Level FlightAware Approximate
06:10PM 40.1776 -79.7538 298° West  Level FlightAware Approximate
06:11PM 40.2440 -79.8786 297° West  Level FlightAware Approximate
06:12PM 40.3102 -80.0037 297° West  Level FlightAware Approximate
06:13PM 40.3644 -80.1347 297° West  Level FlightAware Approximate
06:14PM 40.4289 -80.2616 297° West  Level FlightAware Approximate
06:15PM 40.4965 -80.3847 297° West  Level FlightAware Approximate
06:16PM 40.5606 -80.5122 296° West  Level FlightAware Approximate
06:17PM 40.6150 -80.6466 296° West  Level FlightAware Approximate
06:18PM 40.6832 -80.7689 296° West  Level FlightAware Approximate
06:19PM 40.7469 -80.8970 296° West  Level FlightAware Approximate
06:20PM 40.8105 -81.0254 296° West  Level FlightAware Approximate
06:21PM 40.8739 -81.1541 295° West  Level FlightAware Approximate
06:22PM 40.9359 -81.2841 295° West  Level FlightAware Approximate
06:23PM 40.9978 -81.4143 295° West  Level FlightAware Approximate
06:24PM 41.0593 -81.5444 295° West  Level FlightAware Approximate
06:25PM 41.1200 -81.6751 294° West  Level FlightAware Approximate
06:26PM 41.1774 -81.8087 294° West  Level FlightAware Approximate
06:27PM 41.2346 -81.9426 294° West  Level FlightAware Approximate
06:28PM 41.2916 -82.0767 294° West  Level FlightAware Approximate
06:29PM 41.3702 -82.1883 293° West  Level FlightAware Approximate
06:30PM 41.4259 -82.3231 293° West  Level FlightAware Approximate
06:31PM 41.4814 -82.4581 293° West  Level FlightAware Approximate
06:32PM 41.5626 -82.5536 292° West  Level FlightAware Approximate
06:33PM 41.6105 -82.6940 292° West  Level FlightAware Approximate
06:34PM 41.6967 -82.7967 291° West  Level FlightAware Approximate
06:35PM 41.7618 -82.9233 290° West  Level FlightAware Approximate
06:36PM 41.8070 -83.0653 290° West  Level FlightAware Approximate
06:37PM 41.8875 -83.1712 289° West  Level FlightAware Approximate
06:38PM 41.9263 -83.3167 289° West  Level FlightAware Approximate
06:39PM 41.9650 -83.4624 289° West  Level FlightAware Approximate
06:40PM 41.9983 -83.6106 289° West  Level FlightAware Approximate
06:41PM 42.0314 -83.7589 289° West  Level FlightAware Approximate
06:42PM 42.0644 -83.9073 289° West  Level FlightAware Approximate
06:43PM 42.0971 -84.0560 289° West  Level FlightAware Approximate
06:44PM 42.1297 -84.2047 289° West  Level FlightAware Approximate
06:45PM 42.1620 -84.3537 289° West  Level FlightAware Approximate
06:46PM 42.1942 -84.5027 289° West  Level FlightAware Approximate
06:47PM 42.2263 -84.6524 289° West  Level FlightAware Approximate
06:48PM 42.2581 -84.8023 289° West  Level FlightAware Approximate
06:49PM 42.2899 -84.9528 289° West  Level FlightAware Approximate
06:50PM 42.3215 -85.1034 289° West  Level FlightAware Approximate
06:51PM 42.3508 -85.2550 289° West  Level FlightAware Approximate
06:52PM 42.3799 -85.4067 290° West  Level FlightAware Approximate
06:53PM 42.4065 -85.5593 290° West  Level FlightAware Approximate
06:54PM 42.4329 -85.7120 290° West  Level FlightAware Approximate
06:55PM 42.4591 -85.8649 291° West  Level FlightAware Approximate
06:56PM 42.4819 -86.0188 292° West  Level FlightAware Approximate
06:57PM 42.5045 -86.1729 293° West  Level FlightAware Approximate
06:58PM 42.5268 -86.3270 294° West  Level FlightAware Approximate
06:59PM 42.5489 -86.4813 295° West  Level FlightAware Approximate
07:00PM 42.5709 -86.6357 297° West  Level FlightAware Approximate
07:01PM 42.5921 -86.7903 299° West  Level FlightAware Approximate
07:02PM 42.6131 -86.9450 303° West  Level FlightAware Approximate
07:03PM 42.6290 -87.1009 308° West  Level FlightAware Approximate
07:04PM 42.6446 -87.2568 316° Northwest  Level FlightAware Approximate
07:05PM 42.6600 -87.4129 328° Northwest  Level FlightAware Approximate
07:05PM 42.9467 -87.6594 290° West 424 488 38,000  Level Chicago Center
07:08PM 43.0692 -88.1136 278° West 424 488 38,000  Level Chicago Center
07:11PM 43.1211 -88.6047 272° West 423 487 38,000  Level Chicago Center
07:12PM 43.1242 -88.7694 271° West 423 487 38,000  Level Chicago Center
07:13PM 43.1269 -88.9317 270° West 423 487 38,000  Level Chicago Center
07:14PM 43.1275 -89.0967 271° West 428 493 38,000  Level Chicago Center
07:15PM 43.1300 -89.2589 271° West 428 493 38,000  Level Chicago Center
07:16PM 43.1319 -89.4239 270° West 433 498 38,000  Level Chicago Center
07:17PM 43.1317 -89.5858 271° West 433 498 38,000  Level Chicago Center
07:18PM 43.1333 -89.7539 270° West 438 504 38,000  Level Chicago Center
07:19PM 43.1328 -89.9158 271° West 438 504 38,000  Level Chicago Center
07:20PM 43.1339 -90.0839 270° West 438 504 38,000  Level Chicago Center
07:21PM 43.1347 -90.2517 272° West 438 504 38,000  Level Chicago Center
07:22PM 43.1378 -90.3967 269° West 438 504 38,000  Level Chicago Center
07:23PM 43.1361 -90.5675 270° West 438 504 38,000  Level Chicago Center
07:25PM 43.1342 -90.9114 269° West 441 507 38,000  Level Minneapolis Center
07:26PM 43.1317 -91.0794 270° West 446 513 38,000  Level Minneapolis Center
07:28PM 43.1303 -91.4347 268° West 446 513 38,000  Level Minneapolis Center
07:29PM 43.1269 -91.6025 270° West 441 507 38,000  Level Minneapolis Center
07:30PM 43.1275 -91.7703 268° West 441 507 38,000  Level Minneapolis Center
07:31PM 43.1236 -91.9411 268° West 441 507 38,000  Level Minneapolis Center
07:32PM 43.1194 -92.1031 268° West 441 507 38,000  Level Minneapolis Center
07:33PM 43.1153 -92.2736 270° West 441 507 38,000  Level Minneapolis Center
07:34PM 43.1144 -92.4244 268° West 441 507 38,000  Level Minneapolis Center
07:35PM 43.1097 -92.5864 269° West 441 507 38,000  Level Minneapolis Center
07:36PM 43.1067 -92.7542 268° West 441 507 38,000  Level Minneapolis Center
07:37PM 43.1014 -92.9189 268° West 441 507 38,000  Level Minneapolis Center
07:38PM 43.0978 -93.0808 268° West 441 507 38,000  Level Minneapolis Center
07:39PM 43.0939 -93.2486 266° West 441 507 38,000  Level Minneapolis Center
07:40PM 43.0858 -93.4106 261° West 441 507 38,000  Level Minneapolis Center
07:41PM 43.0669 -93.5808 263° West 441 507 38,000  Level Minneapolis Center
07:42PM 43.0522 -93.7425 262° West 441 507 38,000  Level Minneapolis Center
07:43PM 43.0350 -93.9042 263° West 441 507 38,000  Level Minneapolis Center
07:44PM 43.0194 -94.0717 261° West 448 516 38,000  Level Minneapolis Center
07:45PM 42.9997 -94.2358 263° West 443 510 38,000  Level Minneapolis Center
07:46PM 42.9858 -94.3972 260° West 443 510 38,000  Level Minneapolis Center
07:47PM 42.9636 -94.5614 266° West 443 510 38,000  Level Minneapolis Center
07:48PM 42.9553 -94.7397 261° West 432 497 38,000  Level Minneapolis Center
07:49PM 42.9367 -94.9008 263° West 437 503 38,000  Level Minneapolis Center
07:50PM 42.9242 -95.0450 261° West 437 503 38,000  Level Minneapolis Center
07:51PM 42.9050 -95.2117 262° West 444 511 38,000  Level Minneapolis Center
07:52PM 42.8878 -95.3697 262° West 444 511 38,000  Level Minneapolis Center
07:53PM 42.8703 -95.5361 261° West 444 511 38,000  Level Minneapolis Center
07:54PM 42.8503 -95.7025 261° West 444 511 38,000  Level Minneapolis Center
07:55PM 42.8322 -95.8658 260° West 444 511 38,000  Level Minneapolis Center
07:56PM 42.8094 -96.0458 261° West 444 511 38,000  Level Minneapolis Center
07:57PM 42.7908 -96.2089 261° West 450 518 38,000  Level Minneapolis Center
07:58PM 42.7719 -96.3750 260° West 444 511 38,000  Level Minneapolis Center
07:59PM 42.7508 -96.5378 260° West 449 517 38,000  Level Minneapolis Center
08:00PM 42.7294 -96.7006 262° West 444 511 38,000  Level Minneapolis Center
08:01PM 42.7144 -96.8522 260° West 450 518 38,000  Level Minneapolis Center
08:02PM 42.6925 -97.0203 261° West 450 518 38,000  Level Minneapolis Center
08:03PM 42.6697 -97.2081 260° West 461 531 38,000  Level Minneapolis Center
08:04PM 42.6492 -97.3733 259° West 461 531 38,000  Level Minneapolis Center
08:05PM 42.6244 -97.5381 262° West 461 531 38,000  Level Minneapolis Center
08:06PM 42.6056 -97.7086 262° West 461 531 38,000  Level Minneapolis Center
08:07PM 42.5892 -97.8597 259° West 461 531 38,000  Level Minneapolis Center
08:08PM 42.5658 -98.0242 259° West 461 531 38,000  Level Minneapolis Center
08:09PM 42.5419 -98.1914 260° West 461 531 38,000  Level Minneapolis Center
08:10PM 42.5203 -98.3558 260° West 461 531 38,000  Level Minneapolis Center
08:11PM 42.4978 -98.5286 258° West 461 531 38,000  Level Minneapolis Center
08:12PM 42.4556 -98.8028 257° West 466 536 38,000  Level Denver Center
08:13PM 42.4269 -98.9697 257° West 461 531 38,000  Level Denver Center
08:14PM 42.3997 -99.1333 257° West 461 531 38,000  Level Denver Center
08:15PM 42.3725 -99.2967 257° West 461 531 38,000  Level Denver Center
08:16PM 42.3450 -99.4631 257° West 461 531 38,000  Level Denver Center
08:17PM 42.3175 -99.6289 256° West 461 531 38,000  Level Denver Center
08:18PM 42.2875 -99.7953 257° West 467 537 38,000  Level Denver Center
08:19PM 42.2625 -99.9439 257° West 461 531 38,000  Level Denver Center
08:20PM 42.2339 -100.1067 257° West 461 531 38,000  Level Denver Center
08:21PM 42.2019 -100.2867 257° West 461 531 38,000  Level Denver Center
08:22PM 42.1731 -100.4519 256° West 461 531 38,000  Level Denver Center
08:23PM 42.1453 -100.6003 257° West 461 531 38,000  Level Denver Center
08:24PM 42.1147 -100.7822 256° West 461 531 38,000  Level Denver Center
08:25PM 42.0850 -100.9472 256° West 456 525 38,000  Level Denver Center
08:26PM 42.0550 -101.1067 256° West 456 525 38,000  Level Denver Center
08:27PM 42.0264 -101.2572 256° West 461 531 38,000  Level Denver Center
08:28PM 41.9925 -101.4361 255° West 456 525 38,000  Level Denver Center
08:29PM 41.9617 -101.5919 256° West 456 525 38,000  Level Denver Center
08:30PM 41.9344 -101.7394 256° West 456 525 38,000  Level Denver Center
08:31PM 41.9053 -101.8950 255° West 444 511 38,000  Level Denver Center
08:32PM 41.8703 -102.0647 255° West 439 505 38,000  Level Denver Center
08:33PM 41.8386 -102.2231 258° West 439 505 38,000  Level Denver Center
08:34PM 41.8164 -102.3583 255° West 426 490 38,000  Level Denver Center
08:35PM 41.7825 -102.5303 255° West 426 490 38,000  Level Denver Center
08:36PM 41.7503 -102.6856 255° West 433 498 38,000  Level Denver Center
08:37PM 41.7178 -102.8458 256° West 438 504 38,000  Level Denver Center
08:38PM 41.6928 -102.9836 254° West 436 502 38,000  Level Denver Center
08:39PM 41.6581 -103.1494 254° West 424 488 38,000  Level Denver Center
08:40PM 41.6269 -103.2983 255° West 424 488 38,000  Level Denver Center
08:41PM 41.5956 -103.4497 254° West 424 488 38,000  Level Denver Center
08:42PM 41.5675 -103.5842 254° West 424 488 38,000  Level Denver Center
08:43PM 41.5319 -103.7522 254° West 429 494 38,000  Level Denver Center
08:44PM 41.4981 -103.9064 254° West 429 494 38,000  Level Denver Center
08:45PM 41.4658 -104.0600 255° West 429 494 38,000  Level Denver Center
08:46PM 41.4375 -104.2022 253° West 438 504 38,000  Level Denver Center
08:47PM 41.4028 -104.3531 254° West 438 504 38,000  Level Denver Center
08:48PM 41.3681 -104.5172 255° West 438 504 38,000  Level Denver Center
08:49PM 41.3372 -104.6703 253° West 438 504 38,000  Level Denver Center
08:50PM 41.3058 -104.8039 255° West 432 497 38,000  Level Denver Center
08:51PM 41.2747 -104.9594 253° West 427 491 38,000  Level Denver Center
08:52PM 41.2372 -105.1258 253° West 427 491 38,000  Level Denver Center
08:53PM 41.2014 -105.2783 254° West 427 491 38,000  Level Denver Center
08:54PM 41.1714 -105.4142 253° West 427 491 38,000  Level Denver Center
08:55PM 41.1372 -105.5664 254° West 427 491 38,000  Level Denver Center
08:56PM 41.1008 -105.7350 252° West 427 491 38,000  Level Denver Center
08:57PM 41.0642 -105.8867 254° West 432 497 38,000  Level Denver Center
08:58PM 41.0356 -106.0219 253° West 437 503 38,000  Level Denver Center
08:59PM 40.9986 -106.1844 253° West 423 487 38,000  Level Denver Center
09:00PM 40.9633 -106.3386 252° West 423 487 38,000  Level Denver Center
09:01PM 40.9258 -106.4900 252° West 429 494 38,000  Level Denver Center
09:02PM 40.8925 -106.6272 253° West 434 499 38,000  Level Denver Center
09:03PM 40.8547 -106.7892 252° West 428 493 38,000  Level Denver Center
09:04PM 40.8167 -106.9397 252° West 428 493 38,000  Level Denver Center
09:05PM 40.7803 -107.0903 250° West 428 493 38,000  Level Denver Center
09:06PM 40.7442 -107.2244 253° West 433 498 38,000  Level Denver Center
09:07PM 40.7033 -107.3964 251° West 445 512 38,000  Level Denver Center
09:08PM 40.6644 -107.5492 253° West 445 512 38,000  Level Denver Center
09:09PM 40.6275 -107.7044 251° West 445 512 38,000  Level Denver Center
09:10PM 40.5925 -107.8406 252° West 439 505 38,000  Level Denver Center
09:11PM 40.5508 -108.0064 252° West 446 513 38,000  Level Denver Center
09:12PM 40.5133 -108.1558 251° West 441 507 38,000  Level Denver Center
09:13PM 40.4778 -108.2914 252° West 441 507 38,000  Level Denver Center
09:14PM 40.4397 -108.4414 251° West 428 493 38,000  Level Salt Lake Center
09:15PM 40.4025 -108.5861 251° West 433 498 38,000  Level Salt Lake Center
09:16PM 40.3597 -108.7517 251° West 430 495 38,000  Level Salt Lake Center
09:17PM 40.3244 -108.8883 251° West 427 491 38,000  Level Salt Lake Center
09:18PM 40.2811 -109.0519 251° West 427 491 38,000  Level Salt Lake Center
09:19PM 40.2431 -109.1936 251° West 430 495 38,000  Level Salt Lake Center
09:20PM 40.2056 -109.3342 251° West 430 495 38,000  Level Salt Lake Center
09:21PM 40.1619 -109.4981 251° West 430 495 38,000  Level Salt Lake Center
09:23PM 40.1236 -109.6397 250° West 432 497 38,000  Level Salt Lake Center
09:24PM 40.0783 -109.8050 251° West 434 499 38,000  Level Salt Lake Center
09:25PM 40.0400 -109.9461 250° West 433 498 38,000  Level Salt Lake Center
09:26PM 39.9950 -110.1100 250° West 431 496 38,000  Level Salt Lake Center
09:27PM 39.9561 -110.2506 250° West 431 496 38,000  Level Salt Lake Center
09:28PM 39.9175 -110.3911 250° West 431 496 38,000  Level Salt Lake Center
09:29PM 39.8717 -110.5539 250° West 430 495 38,000  Level Salt Lake Center
09:30PM 39.8328 -110.6928 250° West 429 494 38,000  Level Salt Lake Center
09:31PM 39.7867 -110.8547 250° West 428 493 38,000  Level Salt Lake Center
09:32PM 39.7475 -110.9939 250° West 429 494 38,000  Level Salt Lake Center
09:33PM 39.7075 -111.1358 249° West 434 499 38,000  Level Salt Lake Center
09:34PM 39.6617 -111.2928 249° West 434 499 38,000  Level Salt Lake Center
09:35PM 39.6186 -111.4406 250° West 433 498 38,000  Level Salt Lake Center
09:36PM 39.5769 -111.5878 249° West 432 497 38,000  Level Salt Lake Center
09:37PM 39.5336 -111.7342 249° West 431 496 38,000  Level Salt Lake Center
09:38PM 39.4906 -111.8797 249° West 430 495 38,000  Level Salt Lake Center
09:39PM 39.4475 -112.0250 249° West 429 494 38,000  Level Salt Lake Center
09:40PM 39.4047 -112.1706 249° West 429 494 38,000  Level Salt Lake Center
09:41PM 39.3531 -112.3408 249° West 431 496 38,000  Level Salt Lake Center
09:42PM 39.3092 -112.4856 254° West 430 495 38,000  Level Salt Lake Center
09:43PM 39.2753 -112.6331 254° West 425 489 38,000  Level Salt Lake Center
09:44PM 39.2453 -112.7642 254° West 420 483 38,000  Level Salt Lake Center
09:45PM 39.2117 -112.9164 254° West 433 498 38,000  Level Salt Lake Center
09:46PM 39.1775 -113.0678 253° West 433 498 38,000  Level Salt Lake Center
09:47PM 39.1433 -113.2153 254° West 429 494 38,000 300 Level Salt Lake Center
09:48PM 39.1094 -113.3675 254° West 432 497 38,700 840 Climbing Salt Lake Center
09:49PM 39.0689 -113.5469 253° West 430 495 39,800 600 Climbing Salt Lake Center
09:50PM 39.0350 -113.6928 253° West 424 488 40,000 60 Climbing Salt Lake Center
09:51PM 39.0006 -113.8397 253° West 423 487 40,000  Level Salt Lake Center
09:52PM 38.9661 -113.9878 253° West 426 490 40,000  Level Salt Lake Center
09:53PM 38.9314 -114.1331 254° West 423 487 40,000  Level Salt Lake Center
09:54PM 38.8983 -114.2764 253° West 417 480 40,000  Level Salt Lake Center
09:55PM 38.8631 -114.4233 253° West 421 484 40,000  Level Salt Lake Center
09:56PM 38.8286 -114.5678 253° West 420 483 40,000  Level Salt Lake Center
09:57PM 38.7933 -114.7117 253° West 418 481 40,000  Level Salt Lake Center
09:58PM 38.7586 -114.8572 252° West 419 482 40,000  Level Salt Lake Center
09:59PM 38.7225 -115.0025 252° West 421 484 40,000  Level Salt Lake Center
10:00PM 38.6861 -115.1481 252° West 422 486 40,000  Level Salt Lake Center
10:01PM 38.6497 -115.2944 252° West 424 488 40,000  Level Salt Lake Center
10:02PM 38.6100 -115.4525 253° West 425 489 40,000  Level Salt Lake Center
10:04PM 38.5753 -115.5958 252° West 424 488 40,000  Level Salt Lake Center
10:05PM 38.5414 -115.7300 252° West 399 459 40,000  Level Salt Lake Center
10:06PM 38.5072 -115.8631 252° West 391 450 40,000  Level Salt Lake Center
10:07PM 38.4728 -115.9956 252° West 393 452 40,000  Level Salt Lake Center
10:08PM 38.4386 -116.1283 252° West 393 452 40,000  Level Salt Lake Center
10:09PM 38.3972 -116.2897 252° West 398 458 40,000  Level Salt Lake Center
10:10PM 38.3631 -116.4261 251° West 402 463 40,000  Level Salt Lake Center
10:11PM 38.3269 -116.5597 252° West 400 460 40,000  Level Salt Lake Center
10:12PM 38.2928 -116.6925 251° West 396 456 40,000  Level Salt Lake Center
10:13PM 38.2572 -116.8272 252° West 400 460 40,000  Level Salt Lake Center
10:14PM 38.2217 -116.9631 251° West 403 464 40,000  Level Salt Lake Center
10:15PM 38.1858 -117.0989 252° West 406 467 40,000  Level Salt Lake Center
10:16PM 38.1475 -117.2458 250° West 406 467 40,000  Level Salt Lake Center
10:17PM 38.1067 -117.3919 251° West 402 463 40,000  Level Salt Lake Center
10:18PM 38.0686 -117.5300 251° West 410 472 40,000  Level Salt Lake Center
10:19PM 38.0317 -117.6675 253° West 412 474 40,000  Level Salt Lake Center
10:20PM 37.9992 -117.8050 263° West 407 468 40,000  Level Salt Lake Center
10:21PM 37.9817 -117.9764 263° West 408 470 40,000  Level Salt Lake Center
10:22PM 37.9678 -118.1161 262° West 399 459 40,000  Level Salt Lake Center
10:23PM 37.9528 -118.2542 263° West 397 457 40,000  Level Salt Lake Center
10:24PM 37.9392 -118.4006 263° West 410 472 40,000  Level Oakland Center
10:25PM 37.9253 -118.5381 261° West 410 472 40,000  Level Oakland Center
10:26PM 37.9092 -118.6728 262° West 405 466 40,000  Level Oakland Center
10:27PM 37.8914 -118.8367 264° West 405 466 40,000  Level Oakland Center
10:28PM 37.8792 -118.9736 259° West 405 466 40,000  Level Oakland Center
10:29PM 37.8567 -119.1164 262° West 390 449 40,000  Level Oakland Center
10:30PM 37.8419 -119.2536 260° West 390 449 40,000  Level Oakland Center
10:31PM 37.8231 -119.3933 261° West 396 456 40,000  Level Oakland Center
10:32PM 37.8061 -119.5356 261° West 401 461 40,000  Level Oakland Center
10:33PM 37.7892 -119.6753 263° West 411 473 40,000  Level Oakland Center
10:34PM 37.7758 -119.8147 259° West 411 473 40,000 -360 Level Oakland Center
10:35PM 37.7542 -119.9569 261° West 411 473 39,300 -1,800 Descending Oakland Center
10:36PM 37.7367 -120.0989 261° West 411 473 36,500 -2,820 Descending Oakland Center
10:37PM 37.7189 -120.2436 260° West 411 473 33,700 -2,280 Descending Oakland Center
10:38PM 37.6989 -120.3881 261° West 411 473 32,000 -1,860 Descending Oakland Center
10:39PM 37.6806 -120.5353 260° West 418 481 30,000 -2,040 Descending Oakland Center
10:40PM 37.6603 -120.6850 261° West 429 494 28,000 -1,380 Descending Oakland Center
10:41PM 37.6500 -120.7667 261° West 430 495 28,000 -1,200 Level Northern Cal TRACON
10:42PM 37.6333 -120.9000 260° West 428 493 26,400 -2,160 Descending Northern Cal TRACON
10:43PM 37.6167 -121.0167 224° Southwest 426 490 24,100 -3,180 Descending Northern Cal TRACON
10:44PM 37.5333 -121.1167 213° Southwest 397 457 20,400 -3,480 Descending Northern Cal TRACON
10:45PM 37.4333 -121.2000 260° West 386 444 16,900 -2,700 Descending Northern Cal TRACON
10:46PM 37.4167 -121.3167 293° West 356 410 14,800 -2,220 Descending Northern Cal TRACON
10:47PM 37.4500 -121.4167 302° West 333 383 12,500 -2,040 Descending Northern Cal TRACON
10:48PM 37.5000 -121.5167 307° West 337 388 11,000 -840 Descending Northern Cal TRACON
10:49PM 37.5500 -121.6000 258° West 276 318 11,000 -300 Level Northern Cal TRACON
10:50PM 37.5333 -121.7000 253° West 240 276 10,400 -960 Descending Northern Cal TRACON
10:51PM 37.5167 -121.7667 253° West 230 265 9,100 -1,080 Descending Northern Cal TRACON
10:52PM 37.5000 -121.8333 253° West 217 250 8,400 -780 Descending Northern Cal TRACON
10:53PM 37.4833 -121.9000 288° West 198 228 7,700 -900 Descending Northern Cal TRACON
10:54PM 37.5000 -121.9667 270° West 189 217 6,700 -1,020 Descending Northern Cal TRACON
10:55PM 37.5000 -122.0333 270° West 168 193 5,700 -1,080 Descending Northern Cal TRACON
10:56PM 37.5000 -122.0833 288° West 177 204 4,600 -1,080 Descending Northern Cal TRACON
10:57PM 37.5167 -122.1500 310° West 177 204 3,600 -900 Descending Northern Cal TRACON
10:58PM 37.5500 -122.2000 293° West 168 193 2,800 -840 Descending Northern Cal TRACON
10:59PM 37.5667 -122.2500 293° West 145 167 1,900 -900 Descending Northern Cal TRACON